createdAt,value
2017-10-05T00:00:16.523Z,8.63
2017-10-05T00:02:43.977Z,9.77
2017-10-05T00:05:11.434Z,9.43
2017-10-05T00:07:38.917Z,7.87
2017-10-05T00:10:06.550Z,8.07
2017-10-05T00:12:34.119Z,8.13
2017-10-05T00:15:01.602Z,7.10
2017-10-05T00:17:29.078Z,7.93
2017-10-05T00:19:56.568Z,8.70
2017-10-05T00:22:24.018Z,7.70
2017-10-05T00:24:51.494Z,6.93
2017-10-05T00:27:18.950Z,6.80
2017-10-05T00:29:46.439Z,7.77
2017-10-05T00:32:13.935Z,7.20
2017-10-05T00:34:41.398Z,7.83
2017-10-05T00:37:08.852Z,7.27
2017-10-05T00:39:36.329Z,8.33
2017-10-05T00:42:03.783Z,7.80
2017-10-05T00:44:31.243Z,7.20
2017-10-05T00:46:58.722Z,7.80
2017-10-05T00:49:26.173Z,7.47
2017-10-05T00:51:53.630Z,8.87
2017-10-05T00:54:21.114Z,7.13
2017-10-05T00:56:48.567Z,7.23
2017-10-05T00:59:16.038Z,7.10
2017-10-05T01:01:43.515Z,7.73
2017-10-05T01:04:10.975Z,7.07
2017-10-05T01:06:38.427Z,8.47
2017-10-05T01:09:05.906Z,7.80
2017-10-05T01:11:33.357Z,6.60
2017-10-05T01:14:02.118Z,7.10
2017-10-05T01:16:29.598Z,6.37
2017-10-05T01:18:57.055Z,7.50
2017-10-05T01:21:24.515Z,6.67
2017-10-05T01:23:51.995Z,7.13
2017-10-05T01:26:19.451Z,5.93
2017-10-05T01:28:46.911Z,5.53
2017-10-05T01:31:14.386Z,6.40
2017-10-05T01:33:41.834Z,5.57
2017-10-05T01:36:09.283Z,5.83
2017-10-05T01:38:36.755Z,5.40
2017-10-05T01:41:04.219Z,5.40
2017-10-05T01:43:31.670Z,5.60
2017-10-05T01:45:59.147Z,6.60
2017-10-05T01:48:26.595Z,6.10
2017-10-05T01:50:54.045Z,6.50
2017-10-05T01:53:21.522Z,6.40
2017-10-05T01:55:48.974Z,6.37
2017-10-05T01:58:16.422Z,5.80
2017-10-05T02:00:43.903Z,6.57
2017-10-05T02:03:11.362Z,6.10
2017-10-05T02:05:38.811Z,6.50
2017-10-05T02:08:06.289Z,5.67
2017-10-05T02:10:33.741Z,6.10
2017-10-05T02:13:01.194Z,5.93
2017-10-05T02:15:28.670Z,6.53
2017-10-05T02:17:56.122Z,6.57
2017-10-05T02:20:23.578Z,7.33
2017-10-05T02:22:51.055Z,7.47
2017-10-05T02:25:18.539Z,6.13
2017-10-05T02:27:45.998Z,5.97
2017-10-05T02:30:13.491Z,5.43
2017-10-05T02:32:40.946Z,6.07
2017-10-05T02:35:08.403Z,6.40
2017-10-05T02:37:35.877Z,6.20
2017-10-05T02:40:03.334Z,6.63
2017-10-05T02:42:30.786Z,6.67
2017-10-05T02:44:58.262Z,6.17
2017-10-05T02:47:25.722Z,6.33
2017-10-05T02:49:53.175Z,5.40
2017-10-05T02:52:20.654Z,6.07
2017-10-05T02:54:48.111Z,6.30
2017-10-05T02:57:15.566Z,6.40
2017-10-05T02:59:43.038Z,6.70
2017-10-05T03:02:10.486Z,6.27
2017-10-05T03:04:37.939Z,6.47
2017-10-05T03:07:05.411Z,6.50
2017-10-05T03:09:32.870Z,6.77
2017-10-05T03:12:00.324Z,5.93
2017-10-05T03:14:27.802Z,6.77
2017-10-05T03:16:55.254Z,7.60
2017-10-05T03:19:22.710Z,6.30
2017-10-05T03:21:50.186Z,5.80
2017-10-05T03:24:17.646Z,5.80
2017-10-05T03:26:45.105Z,6.40
2017-10-05T03:29:12.579Z,5.90
2017-10-05T03:31:40.034Z,5.73
2017-10-05T03:34:07.486Z,5.30
2017-10-05T03:36:34.963Z,6.37
2017-10-05T03:39:02.422Z,6.13
2017-10-05T03:41:29.878Z,6.53
2017-10-05T03:43:57.351Z,7.53
2017-10-05T03:46:24.807Z,6.90
2017-10-05T03:48:52.263Z,6.50
2017-10-05T03:51:19.737Z,6.37
2017-10-05T03:53:47.190Z,6.50
2017-10-05T03:56:14.643Z,6.83
2017-10-05T03:58:42.118Z,6.90
2017-10-05T04:01:09.586Z,6.70
2017-10-05T04:03:37.042Z,6.23
2017-10-05T04:06:04.514Z,5.70
2017-10-05T04:08:31.962Z,6.63
2017-10-05T04:10:59.414Z,7.63
2017-10-05T04:13:26.886Z,6.47
2017-10-05T04:15:54.338Z,5.80
2017-10-05T04:18:21.787Z,6.70
2017-10-05T04:20:49.266Z,5.77
2017-10-05T04:23:16.722Z,6.40
2017-10-05T04:25:44.174Z,6.30
2017-10-05T04:28:11.642Z,5.70
2017-10-05T04:30:39.090Z,5.67
2017-10-05T04:33:06.538Z,6.20
2017-10-05T04:35:34.014Z,6.90
2017-10-05T04:38:01.469Z,5.50
2017-10-05T04:40:28.918Z,5.60
2017-10-05T04:42:56.398Z,5.60
2017-10-05T04:45:23.855Z,5.97
2017-10-05T04:47:51.305Z,5.57
2017-10-05T04:50:18.791Z,5.80
2017-10-05T04:52:46.249Z,5.27
2017-10-05T04:55:27.234Z,5.93
2017-10-05T04:58:08.415Z,9.93
2017-10-05T05:00:38.537Z,5.80
2017-10-05T05:03:05.988Z,5.80
2017-10-05T05:05:33.451Z,6.10
2017-10-05T05:08:00.946Z,5.70
2017-10-05T05:10:28.394Z,5.30
2017-10-05T05:12:55.884Z,4.47
2017-10-05T05:15:23.417Z,4.90
2017-10-05T05:17:54.842Z,5.30
2017-10-05T05:20:22.291Z,4.90
2017-10-05T05:22:49.782Z,5.97
2017-10-05T05:25:17.246Z,5.90
2017-10-05T05:27:44.702Z,19.60
2017-10-05T05:30:12.182Z,6.50
2017-10-05T05:32:39.636Z,6.40
2017-10-05T05:35:07.090Z,6.40
2017-10-05T05:37:34.566Z,6.00
2017-10-05T05:40:02.022Z,5.80
2017-10-05T05:42:29.474Z,6.13
2017-10-05T05:44:56.947Z,5.57
2017-10-05T05:47:24.397Z,6.10
2017-10-05T05:49:51.854Z,6.00
2017-10-05T05:52:19.362Z,5.80
2017-10-05T05:54:46.826Z,5.40
2017-10-05T05:57:14.281Z,6.37
2017-10-05T05:59:41.760Z,5.67
2017-10-05T06:02:09.210Z,5.20
2017-10-05T06:04:36.677Z,5.60
2017-10-05T06:07:04.150Z,5.30
2017-10-05T06:09:31.602Z,5.10
2017-10-05T06:11:59.054Z,6.20
2017-10-05T06:14:26.540Z,5.70
2017-10-05T06:16:53.998Z,5.70
2017-10-05T06:19:21.453Z,5.43
2017-10-05T06:21:48.929Z,5.47
2017-10-05T06:24:16.406Z,5.87
2017-10-05T06:26:43.858Z,5.30
2017-10-05T06:29:11.348Z,5.70
2017-10-05T06:31:38.801Z,5.27
2017-10-05T06:34:06.393Z,4.93
2017-10-05T06:36:33.874Z,5.00
2017-10-05T06:39:01.334Z,5.30
2017-10-05T06:41:28.811Z,4.37
2017-10-05T06:43:56.268Z,4.87
2017-10-05T06:46:23.726Z,6.17
2017-10-05T06:48:51.202Z,5.50
2017-10-05T06:51:18.670Z,5.20
2017-10-05T06:53:46.119Z,6.53
2017-10-05T06:56:13.590Z,6.30
2017-10-05T06:58:41.041Z,5.20
2017-10-05T07:01:08.490Z,5.20
2017-10-05T07:03:35.979Z,4.70
2017-10-05T07:06:03.434Z,4.70
2017-10-05T07:08:30.914Z,4.90
2017-10-05T07:10:58.402Z,5.17
2017-10-05T07:13:25.859Z,5.90
2017-10-05T07:15:53.315Z,4.80
2017-10-05T07:18:20.790Z,6.10
2017-10-05T07:20:48.241Z,5.87
2017-10-05T07:23:15.695Z,5.10
2017-10-05T07:25:43.174Z,4.80
2017-10-05T07:28:10.631Z,4.80
2017-10-05T07:30:38.090Z,6.10
2017-10-05T07:33:05.574Z,5.10
2017-10-05T07:35:33.039Z,4.30
2017-10-05T07:38:00.491Z,5.07
2017-10-05T07:40:27.970Z,4.30
2017-10-05T07:42:55.466Z,5.40
2017-10-05T07:45:22.914Z,5.23
2017-10-05T07:47:50.367Z,7.07
2017-10-05T07:50:17.842Z,4.90
2017-10-05T07:52:45.291Z,4.80
2017-10-05T07:55:12.742Z,5.10
2017-10-05T07:57:40.222Z,5.10
2017-10-05T08:00:07.675Z,4.90
2017-10-05T08:02:35.131Z,4.33
2017-10-05T08:05:02.602Z,5.03
2017-10-05T08:07:30.057Z,4.30
2017-10-05T08:09:57.509Z,4.70
2017-10-05T08:12:25.013Z,5.00
2017-10-05T08:14:52.458Z,4.73
2017-10-05T08:17:19.910Z,4.93
2017-10-05T08:19:47.391Z,5.00
2017-10-05T08:22:14.838Z,4.60
2017-10-05T08:24:42.286Z,4.60
2017-10-05T08:27:09.763Z,4.20
2017-10-05T08:29:37.210Z,4.30
2017-10-05T08:32:04.659Z,4.17
2017-10-05T08:34:32.139Z,4.77
2017-10-05T08:36:59.598Z,4.37
2017-10-05T08:39:27.041Z,3.73
2017-10-05T08:41:54.514Z,4.27
2017-10-05T08:44:21.966Z,4.30
2017-10-05T08:46:49.439Z,3.97
2017-10-05T08:52:15.030Z,4.10
2017-10-05T08:54:42.482Z,4.80
2017-10-05T08:57:09.929Z,3.67
2017-10-05T08:59:37.400Z,3.90
2017-10-05T09:02:04.866Z,4.20
2017-10-05T09:04:32.310Z,4.63
2017-10-05T09:06:59.758Z,4.30
2017-10-05T09:09:27.252Z,4.00
2017-10-05T09:11:54.713Z,4.00
2017-10-05T09:14:22.162Z,3.70
2017-10-05T09:16:49.650Z,3.53
2017-10-05T09:19:17.971Z,3.77
2017-10-05T09:21:45.446Z,3.60
2017-10-05T09:24:12.902Z,5.07
2017-10-05T09:26:40.375Z,3.93
2017-10-05T09:29:07.822Z,4.20
2017-10-05T09:31:35.302Z,3.97
2017-10-05T09:34:02.758Z,4.70
2017-10-05T09:36:30.206Z,4.10
2017-10-05T09:38:57.686Z,4.67
2017-10-05T09:41:25.139Z,4.10
2017-10-05T09:43:52.587Z,4.73
2017-10-05T09:46:20.057Z,4.17
2017-10-05T09:48:47.506Z,3.80
2017-10-05T09:51:14.954Z,4.87
2017-10-05T09:53:42.421Z,3.77
2017-10-05T09:56:09.866Z,3.57
2017-10-05T09:58:37.313Z,3.87
2017-10-05T10:01:04.786Z,3.80
2017-10-05T10:03:32.241Z,3.80
2017-10-05T10:05:59.687Z,3.80
2017-10-05T10:08:27.168Z,4.43
2017-10-05T10:10:54.615Z,4.10
2017-10-05T10:13:22.067Z,3.43
2017-10-05T10:15:49.543Z,3.70
2017-10-05T10:18:16.990Z,3.90
2017-10-05T10:20:44.466Z,3.50
2017-10-05T10:23:11.946Z,3.20
2017-10-05T10:25:39.396Z,3.30
2017-10-05T10:28:06.874Z,3.13
2017-10-05T10:30:34.327Z,3.50
2017-10-05T10:33:01.777Z,3.80
2017-10-05T10:35:29.254Z,3.70
2017-10-05T10:37:56.697Z,3.30
2017-10-05T10:40:24.142Z,3.70
2017-10-05T10:42:51.638Z,3.20
2017-10-05T10:45:19.089Z,3.00
2017-10-05T10:47:46.552Z,3.20
2017-10-05T10:50:14.026Z,3.30
2017-10-05T10:52:41.486Z,3.20
2017-10-05T10:55:08.939Z,3.90
2017-10-05T10:57:36.410Z,3.03
2017-10-05T11:00:03.861Z,3.23
2017-10-05T11:02:31.313Z,3.70
2017-10-05T11:04:58.794Z,3.47
2017-10-05T11:07:26.238Z,3.30
2017-10-05T11:09:53.698Z,3.27
2017-10-05T11:12:21.178Z,4.10
2017-10-05T11:14:48.626Z,3.27
2017-10-05T11:17:16.078Z,3.80
2017-10-05T11:19:43.552Z,3.50
2017-10-05T11:22:10.998Z,3.30
2017-10-05T11:24:38.451Z,3.70
2017-10-05T11:27:05.926Z,4.00
2017-10-05T11:29:33.374Z,3.33
2017-10-05T11:32:00.829Z,3.23
2017-10-05T11:34:28.307Z,3.53
2017-10-05T11:36:55.769Z,4.17
2017-10-05T11:39:23.226Z,3.60
2017-10-05T11:41:50.702Z,3.90
2017-10-05T11:44:18.158Z,4.37
2017-10-05T11:46:45.614Z,3.80
2017-10-05T11:49:13.125Z,3.60
2017-10-05T11:51:40.581Z,3.77
2017-10-05T11:54:08.030Z,3.30
2017-10-05T11:56:35.528Z,3.53
2017-10-05T11:59:03.000Z,3.07
2017-10-05T12:01:30.454Z,3.20
2017-10-05T12:03:57.926Z,3.50
2017-10-05T12:06:25.385Z,3.37
2017-10-05T12:08:52.855Z,3.47
2017-10-05T12:11:20.330Z,3.07
2017-10-05T12:13:47.778Z,3.30
2017-10-05T12:16:15.227Z,3.60
2017-10-05T12:18:42.702Z,3.43
2017-10-05T12:21:10.162Z,13.63
2017-10-05T12:23:37.623Z,5.07
2017-10-05T12:26:05.115Z,3.97
2017-10-05T12:28:32.578Z,4.20
2017-10-05T12:31:00.048Z,4.77
2017-10-05T12:33:27.594Z,3.97
2017-10-05T12:35:55.063Z,4.50
2017-10-05T12:38:22.518Z,5.50
2017-10-05T12:40:49.994Z,3.90
2017-10-05T12:43:17.455Z,4.30
2017-10-05T12:45:44.911Z,3.40
2017-10-05T12:48:12.390Z,3.50
2017-10-05T12:50:39.838Z,4.80
2017-10-05T12:53:07.290Z,4.13
2017-10-05T12:55:34.774Z,4.73
2017-10-05T12:58:02.281Z,4.03
2017-10-05T13:00:29.738Z,4.53
2017-10-05T13:02:57.217Z,4.20
2017-10-05T13:05:24.670Z,4.00
2017-10-05T13:07:52.125Z,4.20
2017-10-05T13:10:19.606Z,4.47
2017-10-05T13:12:47.064Z,3.60
2017-10-05T13:15:14.523Z,4.10
2017-10-05T13:17:42.002Z,5.30
2017-10-05T13:20:09.463Z,3.70
2017-10-05T13:22:36.925Z,4.03
2017-10-05T13:25:04.403Z,4.50
2017-10-05T13:27:31.861Z,5.17
2017-10-05T13:29:59.344Z,4.33
2017-10-05T13:32:26.822Z,4.30
2017-10-05T13:34:54.282Z,4.30
2017-10-05T13:37:21.746Z,4.07
2017-10-05T13:39:49.226Z,3.90
2017-10-05T13:42:16.679Z,4.63
2017-10-05T13:44:44.134Z,5.27
2017-10-05T13:47:11.611Z,5.37
2017-10-05T13:49:39.070Z,4.20
2017-10-05T13:52:06.522Z,4.60
2017-10-05T13:54:33.998Z,4.33
2017-10-05T13:57:01.450Z,3.90
2017-10-05T13:59:28.902Z,4.40
2017-10-05T14:01:56.387Z,4.50
2017-10-05T14:04:23.849Z,3.83
2017-10-05T14:06:51.302Z,4.30
2017-10-05T14:09:18.784Z,3.90
2017-10-05T14:11:46.241Z,4.00
2017-10-05T14:14:13.689Z,5.43
2017-10-05T14:16:41.182Z,4.13
2017-10-05T14:19:08.630Z,5.10
2017-10-05T14:21:36.079Z,3.97
2017-10-05T14:24:03.516Z,4.17
2017-10-05T14:26:30.999Z,3.97
2017-10-05T14:28:58.453Z,3.93
2017-10-05T14:31:25.927Z,3.57
2017-10-05T14:33:53.378Z,3.97
2017-10-05T14:36:20.831Z,3.90
2017-10-05T14:38:48.310Z,4.43
2017-10-05T14:41:16.962Z,4.70
2017-10-05T14:43:44.421Z,4.60
2017-10-05T14:46:11.879Z,4.07
2017-10-05T14:48:39.355Z,3.50
2017-10-05T14:51:06.842Z,5.00
2017-10-05T14:53:34.322Z,4.00
2017-10-05T14:56:01.771Z,4.03
2017-10-05T14:58:29.250Z,4.00
2017-10-05T15:00:56.722Z,4.03
2017-10-05T15:03:24.199Z,4.50
2017-10-05T15:05:51.679Z,3.80
2017-10-05T15:08:19.131Z,4.60
2017-10-05T15:10:46.589Z,4.30
2017-10-05T15:13:14.062Z,5.20
2017-10-05T15:15:41.510Z,5.10
2017-10-05T15:18:08.962Z,4.77
2017-10-05T15:20:36.446Z,5.10
2017-10-05T15:23:03.893Z,4.73
2017-10-05T15:25:31.367Z,5.63
2017-10-05T15:27:58.842Z,4.70
2017-10-05T15:30:26.293Z,5.73
2017-10-05T15:32:53.742Z,6.30
2017-10-05T15:35:21.214Z,4.93
2017-10-05T15:37:48.667Z,5.20
2017-10-05T15:40:16.117Z,6.07
2017-10-05T15:42:43.590Z,5.67
2017-10-05T15:45:11.046Z,4.97
2017-10-05T15:47:38.498Z,5.43
2017-10-05T15:50:06.007Z,5.03
2017-10-05T15:52:33.550Z,5.43
2017-10-05T15:55:00.995Z,5.10
2017-10-05T15:57:28.507Z,5.07
2017-10-05T15:59:55.967Z,6.60
2017-10-05T16:02:23.419Z,4.90
2017-10-05T16:04:50.894Z,5.20
2017-10-05T16:07:18.342Z,4.73
2017-10-05T16:09:45.802Z,4.40
2017-10-05T16:12:13.282Z,5.70
2017-10-05T16:14:40.738Z,4.83
2017-10-05T16:17:08.190Z,4.50
2017-10-05T16:19:35.685Z,4.63
2017-10-05T16:22:03.134Z,4.57
2017-10-05T16:24:30.586Z,5.17
2017-10-05T16:26:58.059Z,5.27
2017-10-05T16:29:25.545Z,4.93
2017-10-05T16:31:53.021Z,4.70
2017-10-05T16:34:20.475Z,4.73
2017-10-05T16:36:48.870Z,5.00
2017-10-05T16:39:16.330Z,4.70
2017-10-05T16:41:43.786Z,4.70
2017-10-05T16:44:11.258Z,4.87
2017-10-05T16:46:38.824Z,4.80
2017-10-05T16:49:06.299Z,4.33
2017-10-05T16:51:33.777Z,4.90
2017-10-05T16:54:01.259Z,4.27
2017-10-05T16:56:28.706Z,5.00
2017-10-05T16:58:56.214Z,4.33
2017-10-05T17:01:23.695Z,4.90
2017-10-05T17:03:51.181Z,5.00
2017-10-05T17:06:18.645Z,4.23
2017-10-05T17:08:46.382Z,5.00
2017-10-05T17:14:25.390Z,4.93
2017-10-05T17:16:52.891Z,4.20
2017-10-05T17:19:20.367Z,4.03
2017-10-05T17:21:47.818Z,3.87
2017-10-05T17:24:15.294Z,3.70
2017-10-05T17:26:42.766Z,4.47
2017-10-05T17:29:10.226Z,3.57
2017-10-05T17:31:37.723Z,3.83
2017-10-05T17:34:05.183Z,3.83
2017-10-05T17:36:32.641Z,5.00
2017-10-05T17:39:00.124Z,4.50
2017-10-05T17:41:27.570Z,5.20
2017-10-05T17:43:55.026Z,6.23
2017-10-05T17:46:22.512Z,5.50
2017-10-05T17:48:49.992Z,5.80
2017-10-05T17:51:17.474Z,5.70
2017-10-05T17:53:44.961Z,6.87
2017-10-05T17:56:12.423Z,6.83
2017-10-05T17:58:39.930Z,6.30
2017-10-05T18:01:07.407Z,6.17
2017-10-05T18:03:34.889Z,6.33
2017-10-05T18:06:02.494Z,6.50
2017-10-05T18:08:29.967Z,6.30
2017-10-05T18:10:57.424Z,5.30
2017-10-05T18:13:25.241Z,5.67
2017-10-05T18:15:52.909Z,5.97
2017-10-05T18:18:20.447Z,6.03
2017-10-05T18:20:48.117Z,5.90
2017-10-05T18:23:15.644Z,7.10
2017-10-05T18:25:43.201Z,6.57
2017-10-05T18:28:10.915Z,6.10
2017-10-05T18:30:38.620Z,6.00
2017-10-05T18:33:06.258Z,6.77
2017-10-05T18:35:33.901Z,5.90
2017-10-05T18:38:01.636Z,6.50
2017-10-05T18:40:30.051Z,5.60
2017-10-05T18:42:58.234Z,5.70
2017-10-05T18:45:26.511Z,6.13
2017-10-05T18:47:54.678Z,6.77
2017-10-05T18:50:22.786Z,6.27
2017-10-05T18:52:50.991Z,6.30
2017-10-05T18:55:19.427Z,6.30
2017-10-05T18:57:47.706Z,6.80
2017-10-05T19:00:16.038Z,6.63
2017-10-05T19:02:44.403Z,6.83
2017-10-05T19:05:12.556Z,6.90
2017-10-05T19:07:40.448Z,6.83
2017-10-05T19:10:08.906Z,7.20
2017-10-05T19:12:37.260Z,7.63
2017-10-05T19:15:05.726Z,6.30
2017-10-05T19:17:34.171Z,6.20
2017-10-05T19:20:02.604Z,7.40
2017-10-05T19:22:31.016Z,6.37
2017-10-05T19:24:59.728Z,6.50
2017-10-05T19:27:28.494Z,6.80
2017-10-05T19:29:56.785Z,5.37
2017-10-05T19:32:25.394Z,5.50
2017-10-05T19:34:53.945Z,5.80
2017-10-05T19:37:22.616Z,6.67
2017-10-05T19:39:51.076Z,6.30
2017-10-05T19:42:19.159Z,6.40
2017-10-05T19:44:47.324Z,5.70
2017-10-05T19:47:15.502Z,5.83
2017-10-05T19:49:43.726Z,5.77
2017-10-05T19:52:11.936Z,5.97
2017-10-05T19:54:40.628Z,5.83
2017-10-05T19:57:09.135Z,5.97
2017-10-05T19:59:38.488Z,6.30
2017-10-05T20:02:06.708Z,6.30
2017-10-05T20:04:34.285Z,5.40
2017-10-05T20:07:02.564Z,5.80
2017-10-05T20:09:30.563Z,5.93
2017-10-05T20:11:58.563Z,6.80
2017-10-05T20:14:30.791Z,6.23
2017-10-05T20:16:59.378Z,5.93
2017-10-05T20:22:45.882Z,5.80
2017-10-05T20:25:18.978Z,7.40
2017-10-05T20:27:52.061Z,6.80
2017-10-05T20:30:24.242Z,7.20
2017-10-05T20:32:53.215Z,6.90
2017-10-05T20:35:20.680Z,7.00
2017-10-05T20:37:48.235Z,7.30
2017-10-05T20:40:15.712Z,7.93
2017-10-05T20:42:43.197Z,7.33
2017-10-05T20:45:10.691Z,7.70
2017-10-05T20:47:38.151Z,7.10
2017-10-05T20:50:05.723Z,7.57
2017-10-05T20:52:33.216Z,7.70
2017-10-05T20:55:05.753Z,7.40
2017-10-05T20:57:33.293Z,7.23
2017-10-05T21:00:00.957Z,7.10
2017-10-05T21:02:28.428Z,6.30
2017-10-05T21:04:56.010Z,6.70
2017-10-05T21:07:24.916Z,6.73
2017-10-05T21:12:25.412Z,7.90
2017-10-05T21:14:52.943Z,7.83
2017-10-05T21:17:20.409Z,8.37
2017-10-05T21:19:47.900Z,7.57
2017-10-05T21:22:15.388Z,7.80
2017-10-05T21:24:43.740Z,7.60
2017-10-05T21:27:11.240Z,7.80
2017-10-05T21:29:38.721Z,7.00
2017-10-05T21:32:06.216Z,8.27
2017-10-05T21:34:33.744Z,7.53
2017-10-05T21:37:01.225Z,6.77
2017-10-05T21:39:28.716Z,7.30
2017-10-05T21:41:56.293Z,7.00
2017-10-05T21:44:23.772Z,7.00
2017-10-05T21:46:51.424Z,7.17
2017-10-05T21:49:18.935Z,6.50
2017-10-05T21:51:47.075Z,6.70
2017-10-05T21:54:14.816Z,7.13
2017-10-05T21:56:43.556Z,7.20
2017-10-05T21:59:11.027Z,7.03
2017-10-05T22:01:38.556Z,7.03
2017-10-05T22:04:06.033Z,6.63
2017-10-05T22:06:33.507Z,6.93
2017-10-05T22:09:00.996Z,6.83
2017-10-05T22:11:31.996Z,6.20
2017-10-05T22:13:59.977Z,6.73
2017-10-05T22:16:28.089Z,6.60
2017-10-05T22:18:55.981Z,7.10
2017-10-05T22:21:23.515Z,7.07
2017-10-05T22:23:51.016Z,6.03
2017-10-05T22:26:18.702Z,6.53
2017-10-05T22:28:46.168Z,6.67
2017-10-05T22:31:13.713Z,6.00
2017-10-05T22:33:41.180Z,6.27
2017-10-05T22:36:10.875Z,6.27
2017-10-05T22:38:38.395Z,6.73
2017-10-05T22:41:05.855Z,6.37
2017-10-05T22:43:33.316Z,6.50
2017-10-05T22:46:00.804Z,7.50
2017-10-05T22:48:28.302Z,8.63
2017-10-05T22:50:55.772Z,7.90
2017-10-05T22:53:23.253Z,9.17
2017-10-05T22:55:50.743Z,7.60
2017-10-05T22:58:18.206Z,7.73
2017-10-05T23:00:45.667Z,8.10
2017-10-05T23:03:13.160Z,8.57
2017-10-05T23:05:40.627Z,8.43
2017-10-05T23:08:08.095Z,9.50
2017-10-05T23:10:35.580Z,9.03
2017-10-05T23:13:03.044Z,8.70
2017-10-05T23:15:30.512Z,9.17
2017-10-05T23:17:58.003Z,9.67
2017-10-05T23:20:25.491Z,8.60
2017-10-05T23:22:52.956Z,9.60
2017-10-05T23:25:20.416Z,9.30
2017-10-05T23:27:47.907Z,9.53
2017-10-05T23:30:15.372Z,8.80
2017-10-05T23:32:42.836Z,9.03
2017-10-05T23:35:10.324Z,9.50
2017-10-05T23:37:37.787Z,9.33
2017-10-05T23:40:05.247Z,9.47
2017-10-05T23:42:32.731Z,9.50
2017-10-05T23:45:00.196Z,9.17
2017-10-05T23:47:27.664Z,9.43
2017-10-05T23:49:55.262Z,8.70
2017-10-05T23:52:22.735Z,8.60
2017-10-05T23:54:50.196Z,9.53
2017-10-05T23:57:17.692Z,10.50
2017-10-05T23:59:45.184Z,8.80
